Time;durP1;ratioP1;P1;durP2;ratioP2;P2;SDS_P1;SDS_P2;PMS_P1;PMS_P2;Temp;Humidity;BMP_temperature;BMP_pressure;BME280_temperature;BME280_humidity;BME280_pressure;Samples;Min_cycle;Max_cycle;Signal;HPM_P1;HPM_P2
2022/07/29 00:00:15;;;;;;;5.30;1.50;;;;;;;26.08;34.42;98481.94;5053711;28;20029;-48
2022/07/29 00:02:41;;;;;;;13.05;5.55;;;;;;;26.02;34.39;98493.94;5071760;28;20452;-49
2022/07/29 00:05:08;;;;;;;5.25;1.40;;;;;;;26.02;34.08;98485.06;5053738;28;20056;-48
2022/07/29 00:07:34;;;;;;;8.00;1.73;;;;;;;26.00;34.42;98493.44;5071647;28;20020;-49
2022/07/29 00:09:59;;;;;;;4.13;1.50;;;;;;;25.99;34.41;98491.06;5053695;28;20031;-49
2022/07/29 00:12:25;;;;;;;5.40;1.58;;;;;;;25.99;34.25;98481.09;5071659;28;20391;-48
2022/07/29 00:14:52;;;;;;;5.72;1.30;;;;;;;25.94;34.41;98483.91;5053737;28;20028;-48
2022/07/29 00:17:18;;;;;;;8.88;1.33;;;;;;;25.95;34.29;98487.38;5071686;28;20097;-47
2022/07/29 00:19:45;;;;;;;7.10;2.20;;;;;;;26.01;34.60;98478.88;5071662;28;20428;-46
2022/07/29 00:22:11;;;;;;;8.45;1.80;;;;;;;26.03;34.49;98481.28;5053590;28;20036;-47
2022/07/29 00:24:37;;;;;;;8.15;1.80;;;;;;;25.98;34.53;98490.25;5053562;28;20025;-47
2022/07/29 00:27:02;;;;;;;11.00;1.90;;;;;;;25.94;34.62;98481.22;5071161;28;20625;-47
2022/07/29 00:29:28;;;;;;;7.55;1.50;;;;;;;25.91;34.70;98489.88;5053848;28;20035;-48
2022/07/29 00:31:53;;;;;;;6.40;1.77;;;;;;;25.87;34.64;98486.19;5053402;28;20028;-49
2022/07/29 00:37:23;;;;;;;8.00;1.50;;;;;;;25.68;34.74;98478.31;4989914;28;20125;-49
2022/07/29 00:39:49;;;;;;;12.13;1.70;;;;;;;25.66;34.89;98477.84;4989968;28;20237;-48
2022/07/29 00:42:16;;;;;;;5.43;1.40;;;;;;;25.64;35.01;98472.75;4989923;28;20113;-48
2022/07/29 00:44:42;;;;;;;10.13;1.58;;;;;;;25.67;35.13;98474.81;4989903;28;20088;-48
2022/07/29 00:47:10;;;;;;;15.88;2.00;;;;;;;25.71;34.93;98470.41;4989749;28;20034;-48
2022/07/29 00:49:38;;;;;;;10.90;1.80;;;;;;;25.76;34.93;98460.69;4989925;28;20046;-49
2022/07/29 00:52:05;;;;;;;13.07;1.70;;;;;;;25.86;35.00;98460.44;4989851;28;20451;-49
2022/07/29 00:54:32;;;;;;;23.27;2.15;;;;;;;25.96;34.72;98451.31;4989826;28;20408;-48
2022/07/29 00:57:01;;;;;;;9.65;1.70;;;;;;;25.98;34.81;98455.31;4989776;28;20049;-49
2022/07/29 00:59:27;;;;;;;10.05;1.60;;;;;;;25.95;34.68;98458.59;4989741;28;20492;-49
2022/07/29 01:01:54;;;;;;;8.57;1.75;;;;;;;25.81;35.14;98458.63;4989717;28;20042;-48
2022/07/29 01:04:21;;;;;;;4.15;1.38;;;;;;;25.75;34.92;98462.56;4989792;28;20516;-47
2022/07/29 01:06:48;;;;;;;6.53;1.27;;;;;;;25.69;35.11;98471.84;4989580;28;20038;-47
2022/07/29 01:09:17;;;;;;;9.30;1.65;;;;;;;25.64;35.11;98464.69;4989696;28;20519;-46
2022/07/29 01:11:46;;;;;;;7.30;1.52;;;;;;;25.60;35.25;98465.63;5046250;28;20135;-49
2022/07/29 01:14:12;;;;;;;8.00;1.50;;;;;;;25.55;35.40;98469.19;5074726;28;20032;-48
2022/07/29 01:17:16;;;;;;;12.23;2.45;;;;;;;25.53;35.38;98471.41;5074690;28;20043;-49
2022/07/29 01:20:06;;;;;;;10.23;1.67;;;;;;;25.49;35.67;98471.22;5074669;28;20032;-48
2022/07/29 01:22:49;;;;;;;9.98;1.50;;;;;;;25.38;35.70;98461.81;5074700;28;20482;-49
2022/07/29 01:25:52;;;;;;;9.32;1.73;;;;;;;25.17;35.69;98458.72;5056581;28;20032;-48
2022/07/29 01:28:36;;;;;;;7.25;1.70;;;;;;;24.93;36.00;98467.03;5074546;28;20417;-48
2022/07/29 01:31:04;;;;;;;5.55;1.30;;;;;;;24.76;35.94;98467.63;5074396;28;20028;-48
2022/07/29 01:33:49;;;;;;;8.43;1.63;;;;;;;24.57;36.24;98467.75;5056382;28;20039;-48
2022/07/29 01:36:38;;;;;;;6.03;1.10;;;;;;;24.47;36.47;98460.66;5056321;28;20024;-48
2022/07/29 01:39:10;;;;;;;5.53;1.58;;;;;;;24.54;36.78;98470.22;5073151;28;20056;-48
2022/07/29 01:41:52;;;;;;;9.48;1.75;;;;;;;24.62;36.80;98456.91;5056212;28;20028;-48
2022/07/29 01:44:35;;;;;;;5.05;1.48;;;;;;;24.72;36.50;98455.91;5039676;28;20489;-47
2022/07/29 01:47:11;;;;;;;8.07;1.35;;;;;;;24.58;36.63;98455.91;5056125;28;20137;-48
2022/07/29 01:49:43;;;;;;;4.68;1.60;;;;;;;24.45;37.00;98449.44;5074184;28;20035;-48
2022/07/29 01:52:20;;;;;;;7.65;1.52;;;;;;;24.29;37.95;98446.25;5074062;28;20074;-48
2022/07/29 01:55:04;;;;;;;6.45;1.60;;;;;;;24.06;38.34;98456.00;5074042;28;20025;-48
2022/07/29 01:57:33;;;;;;;3.30;1.50;;;;;;;23.91;38.53;98458.97;5074065;28;20070;-48
2022/07/29 02:00:00;;;;;;;6.25;1.60;;;;;;;23.82;39.26;98463.41;5073879;28;20070;-48
2022/07/29 02:02:27;;;;;;;3.83;1.80;;;;;;;23.72;40.31;98457.09;5073846;28;20031;-48
2022/07/29 02:04:54;;;;;;;5.43;1.75;;;;;;;23.57;40.60;98465.38;5073854;28;20032;-48
2022/07/29 02:07:23;;;;;;;4.10;2.10;;;;;;;23.37;41.60;98455.75;5073679;28;20506;-48
2022/07/29 02:09:51;;;;;;;6.15;2.05;;;;;;;23.22;41.38;98458.63;5073706;28;20037;-48
2022/07/29 02:12:19;;;;;;;8.13;2.08;;;;;;;23.13;41.28;98455.81;5073669;28;20012;-48
2022/07/29 02:14:49;;;;;;;7.18;1.80;;;;;;;23.18;41.53;98447.72;5073560;28;20031;-48
2022/07/29 02:17:22;;;;;;;10.07;1.80;;;;;;;23.37;42.25;98445.03;5073524;28;20078;-47
2022/07/29 02:19:49;;;;;;;5.70;1.60;;;;;;;24.09;40.68;98450.06;5073590;28;20032;-48
2022/07/29 02:22:18;;;;;;;7.43;1.70;;;;;;;24.61;39.02;98449.16;5072376;28;20021;-48
2022/07/29 02:24:44;;;;;;;8.02;2.60;;;;;;;24.80;39.42;98444.47;5055417;28;20024;-47
2022/07/29 02:27:12;;;;;;;6.43;1.52;;;;;;;25.15;38.54;98446.72;5055078;28;20041;-48
2022/07/29 02:29:39;;;;;;;8.13;1.80;;;;;;;25.39;38.36;98454.53;5073342;28;20019;-48
2022/07/29 02:32:08;;;;;;;6.47;1.70;;;;;;;25.38;38.42;98453.75;5038642;28;20427;-48
2022/07/29 02:34:37;;;;;;;9.80;1.85;;;;;;;25.41;38.20;98447.75;5055261;28;20020;-48
2022/07/29 02:37:04;;;;;;;7.07;2.05;;;;;;;25.65;38.27;98452.03;5055187;28;20040;-49
2022/07/29 02:39:31;;;;;;;11.90;2.35;;;;;;;25.71;37.44;98456.97;5073124;28;20367;-48
2022/07/29 02:42:10;;;;;;;12.55;1.60;;;;;;;25.43;37.36;98453.59;5073019;28;20028;-48
2022/07/29 02:44:36;;;;;;;7.78;1.70;;;;;;;25.21;37.94;98449.03;5073002;28;20016;-48
2022/07/29 02:47:20;;;;;;;4.78;1.83;;;;;;;25.04;38.12;98441.56;5055017;28;20490;-48
2022/07/29 02:49:46;;;;;;;6.97;2.53;;;;;;;24.85;38.50;98441.69;5072922;28;20500;-48
2022/07/29 02:52:19;;;;;;;3.22;1.42;;;;;;;24.58;38.60;98449.75;5072802;28;20066;-48
2022/07/29 02:55:10;;;;;;;7.78;1.55;;;;;;;24.29;38.60;98451.59;5054919;28;20025;-48
2022/07/29 02:58:03;;;;;;;6.82;1.70;;;;;;;24.02;38.97;98460.38;5054792;28;20043;-48
2022/07/29 03:00:34;;;;;;;3.67;1.63;;;;;;;23.87;39.10;98455.28;5072042;28;20120;-48
2022/07/29 03:03:05;;;;;;;4.35;1.63;;;;;;;23.72;39.55;98456.28;5072689;28;20035;-48
2022/07/29 03:05:31;;;;;;;6.90;1.60;;;;;;;23.69;39.76;98457.66;5054705;28;20116;-48
2022/07/29 03:08:05;;;;;;;4.10;2.50;;;;;;;23.60;39.88;98464.75;5054505;28;20032;-48
2022/07/29 03:10:33;;;;;;;8.85;2.47;;;;;;;23.47;40.02;98465.50;5072505;28;20020;-47
2022/07/29 03:13:00;;;;;;;9.95;2.67;;;;;;;23.38;40.18;98468.06;5054488;28;20577;-49
2022/07/29 03:15:26;;;;;;;8.18;4.00;;;;;;;23.32;40.28;98469.19;5054431;28;20448;-48
2022/07/29 03:17:53;;;;;;;5.13;3.00;;;;;;;23.27;40.30;98477.31;5072378;28;20415;-48
2022/07/29 03:20:19;;;;;;;7.30;3.05;;;;;;;23.23;40.72;98476.28;5072308;28;20032;-48
2022/07/29 03:22:48;;;;;;;6.30;2.78;;;;;;;;;;5072282;28;20036;-48
2022/07/29 03:25:15;;;;;;;2.85;1.48;;;;;;;23.12;42.24;98467.63;5072197;28;20024;-48
2022/07/29 03:27:42;;;;;;;6.20;2.28;;;;;;;22.96;42.90;98469.66;5071904;28;20090;-48
2022/07/29 03:30:08;;;;;;;2.42;1.30;;;;;;;22.76;43.23;98472.56;5054188;28;20031;-48
2022/07/29 03:32:34;;;;;;;4.18;1.90;;;;;;;22.63;43.40;98476.72;5053935;28;20028;-48
2022/07/29 03:35:00;;;;;;;3.92;1.90;;;;;;;22.41;44.11;98478.00;5054110;28;20040;-48
2022/07/29 03:37:26;;;;;;;5.25;1.80;;;;;;;22.19;44.88;98483.81;5072077;28;20367;-48
2022/07/29 03:39:55;;;;;;;6.35;1.90;;;;;;;21.97;45.43;98488.81;5072047;28;20020;-48
2022/07/29 03:42:24;;;;;;;17.63;2.58;;;;;;;21.81;46.19;98480.13;5072032;28;20016;-49
2022/07/29 03:44:51;;;;;;;8.70;2.42;;;;;;;21.89;45.91;98493.69;5071972;28;20024;-48
2022/07/29 03:47:22;;;;;;;5.10;1.80;;;;;;;21.83;46.13;98496.66;5053992;28;20437;-48
2022/07/29 03:49:52;;;;;;;5.60;1.90;;;;;;;21.58;46.37;98511.78;5053976;28;20028;-48
2022/07/29 03:52:18;;;;;;;6.93;1.85;;;;;;;21.39;47.18;98500.94;5071872;28;20390;-48
2022/07/29 03:54:44;;;;;;;3.17;1.90;;;;;;;21.29;47.42;98501.78;5054213;28;20477;-48
2022/07/29 03:57:11;;;;;;;10.27;1.70;;;;;;;21.25;47.83;98506.09;5053822;28;20025;-48
2022/07/29 03:59:40;;;;;;;4.35;1.80;;;;;;;21.20;48.02;98514.09;5071822;28;20035;-48
2022/07/29 04:02:09;;;;;;;5.78;2.40;;;;;;;21.12;47.88;98520.78;5071833;28;20454;-49
2022/07/29 04:04:35;;;;;;;4.50;2.28;;;;;;;21.08;48.43;98518.97;5071772;28;20058;-48
2022/07/29 04:07:01;;;;;;;8.98;1.80;;;;;;;21.04;48.26;98529.38;5071600;28;20012;-48
2022/07/29 04:09:27;;;;;;;16.70;2.60;;;;;;;21.03;48.49;98530.47;5053729;28;20025;-48
2022/07/29 04:11:52;;;;;;;14.05;2.78;;;;;;;21.10;48.63;98522.94;5053589;28;20035;-48
2022/07/29 04:14:18;;;;;;;3.22;1.92;;;;;;;21.17;48.59;98530.69;5071626;28;20554;-47
2022/07/29 04:16:44;;;;;;;3.38;1.90;;;;;;;21.13;48.32;98534.97;5053567;28;20520;-48
2022/07/29 04:19:10;;;;;;;8.02;2.13;;;;;;;21.07;48.49;98544.06;5071623;28;20051;-48
2022/07/29 04:21:40;;;;;;;10.32;2.50;;;;;;;21.08;48.74;98542.97;5071527;28;20021;-48
2022/07/29 04:24:06;;;;;;;30.65;3.00;;;;;;;21.06;48.82;98540.56;5071505;28;20453;-48
2022/07/29 04:26:32;;;;;;;3.13;1.75;;;;;;;21.05;49.02;98543.53;5043855;28;20040;-47
2022/07/29 04:28:58;;;;;;;5.60;1.77;;;;;;;21.03;49.19;98546.47;5051504;28;20078;-47
2022/07/29 04:31:24;;;;;;;18.85;2.88;;;;;;;20.99;49.43;98544.59;5051484;28;20095;-48
2022/07/29 04:33:49;;;;;;;8.98;2.40;;;;;;;20.98;49.62;98546.47;5033520;28;20383;-47
2022/07/29 04:36:18;;;;;;;26.95;3.50;;;;;;;20.99;49.31;98549.94;5051387;28;20389;-48
2022/07/29 04:38:43;;;;;;;6.10;2.08;;;;;;;21.10;48.93;98552.28;5033476;28;20040;-48
2022/07/29 04:41:09;;;;;;;26.85;4.10;;;;;;;21.21;48.78;98558.41;5033411;28;20029;-48
2022/07/29 04:43:35;;;;;;;21.85;3.70;;;;;;;21.40;48.15;98557.78;5033709;28;20550;-48
2022/07/29 04:46:05;;;;;;;10.13;2.20;;;;;;;21.50;48.22;98560.44;5036166;28;20163;-47
2022/07/29 04:48:31;;;;;;;6.05;1.88;;;;;;;21.60;47.79;98557.72;5055274;28;20021;-48
2022/07/29 04:50:57;;;;;;;6.13;2.05;;;;;;;21.76;47.64;98555.75;5055123;28;20021;-48
2022/07/29 04:53:23;;;;;;;8.23;2.10;;;;;;;22.10;46.83;98553.13;5055173;28;20013;-47
2022/07/29 04:55:48;;;;;;;4.47;1.63;;;;;;;22.14;46.21;98553.34;5037189;28;20512;-48
2022/07/29 04:58:14;;;;;;;10.10;2.63;;;;;;;22.06;46.10;98546.72;5037072;28;20148;-48
2022/07/29 05:00:40;;;;;;;6.18;1.88;;;;;;;22.10;46.24;98544.31;5054945;28;20433;-48
2022/07/29 05:03:06;;;;;;;5.85;2.30;;;;;;;22.36;45.74;98550.28;5037096;28;20017;-48
2022/07/29 05:05:31;;;;;;;13.13;2.30;;;;;;;22.40;45.66;98553.97;5036990;28;20406;-48
2022/07/29 05:07:57;;;;;;;10.82;2.03;;;;;;;22.45;45.63;98558.47;5037184;28;20108;-48
2022/07/29 05:10:23;;;;;;;11.85;2.13;;;;;;;22.58;45.32;98563.19;5054900;28;20025;-47
2022/07/29 05:12:49;;;;;;;7.57;1.85;;;;;;;22.68;45.52;98555.06;5036886;28;20028;-46
2022/07/29 05:15:14;;;;;;;8.82;2.25;;;;;;;22.79;45.18;98563.75;5054791;28;20021;-48
2022/07/29 05:17:40;;;;;;;5.13;2.03;;;;;;;22.90;45.03;98564.47;5036843;28;20044;-47
2022/07/29 05:20:07;;;;;;;11.27;1.92;;;;;;;22.98;44.51;98553.13;5054657;28;20032;-46
2022/07/29 05:22:32;;;;;;;12.48;2.50;;;;;;;23.04;44.34;98552.03;5036686;28;20025;-47
2022/07/29 05:24:58;;;;;;;10.88;2.67;;;;;;;23.06;44.62;98552.53;5036677;28;20031;-47
2022/07/29 05:27:24;;;;;;;10.63;2.22;;;;;;;22.96;44.87;98552.63;5070713;28;20048;-46
2022/07/29 05:29:50;;;;;;;5.53;1.90;;;;;;;22.91;44.78;98561.50;5074455;28;20047;-46
2022/07/29 05:32:15;;;;;;;24.33;3.25;;;;;;;22.93;44.78;98563.88;5074377;28;20028;-46
2022/07/29 05:34:41;;;;;;;21.60;2.85;;;;;;;23.06;44.36;98557.06;5056387;28;20150;-45
2022/07/29 05:37:07;;;;;;;30.50;3.28;;;;;;;23.30;43.81;98563.22;5074375;28;20020;-46
2022/07/29 05:39:33;;;;;;;16.73;3.20;;;;;;;23.47;43.92;98570.78;5074291;28;20606;-46
2022/07/29 05:41:58;;;;;;;27.45;3.05;;;;;;;23.62;43.22;98568.97;5056301;28;20032;-45
2022/07/29 05:44:27;;;;;;;23.38;3.45;;;;;;;23.83;43.50;98566.84;5074229;28;20020;-46
2022/07/29 05:46:52;;;;;;;52.92;5.35;;;;;;;24.13;43.52;98581.69;5056273;28;20078;-47
2022/07/29 05:49:18;;;;;;;14.88;2.10;;;;;;;24.34;42.42;98568.72;5056102;28;20020;-46
2022/07/29 05:51:44;;;;;;;24.33;3.15;;;;;;;24.40;42.30;98572.91;5056011;28;20453;-47
2022/07/29 05:54:10;;;;;;;19.92;2.78;;;;;;;24.44;41.79;98578.50;5056143;28;20021;-48
2022/07/29 05:56:37;;;;;;;15.45;2.63;;;;;;;24.40;41.56;98589.00;5073801;28;20474;-49
2022/07/29 05:59:03;;;;;;;13.10;3.17;;;;;;;24.30;41.43;98597.22;5055965;28;20071;-48
2022/07/29 06:01:28;;;;;;;15.32;2.47;;;;;;;24.37;41.02;98591.47;5055928;28;20524;-48
2022/07/29 06:03:54;;;;;;;20.80;2.50;;;;;;;24.44;40.97;98591.91;5073809;28;20429;-48
2022/07/29 06:06:19;;;;;;;24.02;2.35;;;;;;;24.47;40.66;98597.47;5073701;28;20375;-48
2022/07/29 06:08:45;;;;;;;14.15;2.63;;;;;;;24.48;40.48;98600.94;5073711;28;20371;-48
2022/07/29 06:11:11;;;;;;;14.10;2.40;;;;;;;24.47;40.42;98613.59;5055966;28;20036;-47
2022/07/29 06:13:37;;;;;;;20.23;2.78;;;;;;;24.54;40.58;98612.44;5055668;28;20119;-48
2022/07/29 06:16:02;;;;;;;24.90;2.95;;;;;;;24.80;40.22;98613.59;5073641;28;20596;-48
2022/07/29 06:18:28;;;;;;;49.40;4.47;;;;;;;25.03;40.25;98608.34;5073604;28;20139;-46
2022/07/29 06:20:54;;;;;;;49.80;5.38;;;;;;;25.19;39.36;98598.88;5073407;28;20063;-47
2022/07/29 06:23:20;;;;;;;102.85;7.93;;;;;;;25.12;39.41;98606.56;5055490;28;20024;-47
2022/07/29 06:25:46;;;;;;;38.95;3.95;;;;;;;25.14;39.63;98601.69;5055125;28;20036;-47
2022/07/29 06:28:12;;;;;;;359.10;29.88;;;;;;;25.08;39.59;98621.69;5055515;28;20490;-47
2022/07/29 06:30:39;;;;;;;48.20;4.63;;;;;;;24.94;39.53;98624.34;5073226;28;20031;-46
2022/07/29 06:33:05;;;;;;;31.33;4.65;;;;;;;24.73;39.76;98631.97;5073213;28;20106;-46
2022/07/29 06:35:35;;;;;;;23.77;3.15;;;;;;;24.30;41.64;98634.78;5055284;28;20060;-47
2022/07/29 06:38:02;;;;;;;20.25;3.33;;;;;;;24.00;42.31;98634.13;5073179;28;20036;-47
2022/07/29 06:43:11;;;;;;;25.48;4.53;;;;;;;23.33;48.27;98648.34;5073149;28;20036;-46
2022/07/29 06:45:40;;;;;;;56.92;7.32;;;;;;;23.02;49.57;98637.16;5073019;28;20021;-47
2022/07/29 06:48:06;;;;;;;28.05;4.72;;;;;;;22.87;50.58;98632.72;5072882;28;20024;-46
2022/07/29 06:50:32;;;;;;;23.98;2.95;;;;;;;22.67;51.65;98631.03;5072915;28;20024;-47
2022/07/29 06:52:58;;;;;;;36.92;6.60;;;;;;;22.61;52.12;98634.81;5072868;28;20025;-47
2022/07/29 06:55:24;;;;;;;64.82;8.13;;;;;;;22.99;50.73;98640.38;5072775;28;20371;-46
2022/07/29 06:57:50;;;;;;;25.63;5.15;;;;;;;22.81;50.05;98631.16;5072781;28;20025;-46
2022/07/29 07:00:16;;;;;;;9.60;2.70;;;;;;;22.68;50.45;98643.34;5072755;28;20026;-46
2022/07/29 07:02:42;;;;;;;12.38;2.72;;;;;;;22.64;50.79;98657.56;5054727;28;20024;-46
2022/07/29 07:05:07;;;;;;;6.45;2.15;;;;;;;22.63;50.46;98654.06;5072620;28;20452;-45
2022/07/29 07:07:33;;;;;;;6.65;2.53;;;;;;;22.74;51.23;98641.41;5071847;28;20056;-48
2022/07/29 07:09:59;;;;;;;9.02;2.60;;;;;;;22.85;51.66;98639.44;5054557;28;20031;-48
2022/07/29 07:12:25;;;;;;;9.23;2.40;;;;;;;22.88;51.26;98631.66;5054492;28;20027;-48
2022/07/29 07:14:50;;;;;;;22.20;3.47;;;;;;;22.97;51.02;98623.78;5072433;28;20538;-48
2022/07/29 07:17:19;;;;;;;31.95;4.07;;;;;;;23.58;50.56;98626.91;5054435;28;20102;-48
2022/07/29 07:19:45;;;;;;;29.63;4.35;;;;;;;24.26;48.90;98629.19;5054271;28;20024;-48
2022/07/29 07:22:10;;;;;;;57.40;5.97;;;;;;;24.55;47.63;98622.88;5072161;28;20035;-48
2022/07/29 07:24:36;;;;;;;32.92;3.97;;;;;;;24.60;45.55;98619.31;5054235;28;20066;-47
2022/07/29 07:27:01;;;;;;;51.05;5.55;;;;;;;24.60;44.91;98622.00;5053787;28;20049;-47
2022/07/29 07:29:27;;;;;;;55.20;5.30;;;;;;;24.71;44.45;98610.78;5072146;28;20036;-48
2022/07/29 07:31:54;;;;;;;80.43;6.78;;;;;;;24.85;45.03;98593.91;5054224;28;20119;-46
2022/07/29 07:34:19;;;;;;;87.03;6.40;;;;;;;24.89;45.23;98592.22;5072139;28;20028;-47
2022/07/29 07:36:45;;;;;;;30.20;2.97;;;;;;;25.04;43.53;98585.78;5072042;28;20029;-47
2022/07/29 07:39:11;;;;;;;21.08;3.28;;;;;;;25.15;44.57;98603.25;5054186;28;20032;-47
2022/07/29 07:41:36;;;;;;;19.13;3.28;;;;;;;25.01;46.65;98619.38;5054089;28;20108;-47
2022/07/29 07:44:02;;;;;;;16.38;2.75;;;;;;;24.35;48.65;98631.19;5054004;28;20036;-46
2022/07/29 07:46:28;;;;;;;9.30;3.03;;;;;;;23.60;51.09;98635.44;5071863;28;20013;-48
2022/07/29 07:48:54;;;;;;;9.65;3.17;;;;;;;23.10;52.96;98639.22;5053892;28;20029;-47
2022/07/29 07:51:20;;;;;;;7.00;3.20;;;;;;;22.82;53.77;98640.81;5071893;28;20012;-46
2022/07/29 07:53:49;;;;;;;10.13;3.30;;;;;;;22.61;53.70;98634.03;5071903;28;20028;-47
2022/07/29 07:56:16;;;;;;;8.50;2.75;;;;;;;22.51;54.15;98638.38;5071893;28;20059;-46
2022/07/29 07:58:41;;;;;;;7.72;2.65;;;;;;;22.53;54.03;98641.56;5071873;28;20067;-46
2022/07/29 08:01:08;;;;;;;9.57;2.60;;;;;;;22.41;53.59;98635.00;5053841;28;20056;-47
2022/07/29 08:03:34;;;;;;;9.50;3.28;;;;;;;22.30;54.69;98637.75;5071812;28;20112;-46
2022/07/29 08:06:00;;;;;;;5.25;2.58;;;;;;;22.27;54.82;98634.81;5071685;28;20017;-46
2022/07/29 08:08:25;;;;;;;8.93;2.97;;;;;;;22.14;55.05;98617.50;5071585;28;20038;-46
2022/07/29 08:10:51;;;;;;;24.00;3.65;;;;;;;22.04;54.93;98618.38;5071735;28;20417;-46
2022/07/29 08:13:19;;;;;;;22.00;3.10;;;;;;;22.08;54.87;98618.63;5071743;28;20029;-46
2022/07/29 08:15:45;;;;;;;6.28;2.90;;;;;;;22.14;54.36;98626.31;5071642;28;20049;-46
2022/07/29 08:18:12;;;;;;;7.68;2.58;;;;;;;22.16;53.75;98634.06;5071575;28;20024;-47
2022/07/29 08:20:39;;;;;;;6.93;2.47;;;;;;;22.19;53.27;98641.53;5055895;28;20023;-46
2022/07/29 08:23:08;;;;;;;8.20;2.95;;;;;;;22.30;53.26;98643.09;5075763;28;20029;-47
2022/07/29 08:25:36;;;;;;;207.50;15.65;;;;;;;22.49;53.10;98656.56;5075901;28;20520;-46
2022/07/29 08:28:02;;;;;;;247.95;21.13;;;;;;;22.74;53.03;98670.84;5057371;28;20037;-46
2022/07/29 08:30:27;;;;;;;181.60;13.13;;;;;;;23.09;52.43;98674.31;5057617;28;20062;-47
2022/07/29 08:32:53;;;;;;;74.72;8.77;;;;;;;23.53;50.93;98679.44;5075539;28;20025;-46
2022/07/29 08:35:20;;;;;;;78.65;8.40;;;;;;;23.99;48.62;98696.09;5075414;28;20021;-47
2022/07/29 08:37:46;;;;;;;129.18;9.70;;;;;;;24.34;47.04;98708.19;5075478;28;20558;-47
2022/07/29 08:40:13;;;;;;;27.45;4.18;;;;;;;24.62;46.04;98730.63;5075367;28;20032;-47
2022/07/29 08:42:40;;;;;;;25.55;3.42;;;;;;;24.85;44.64;98733.47;5075402;28;20027;-46
2022/07/29 08:45:07;;;;;;;46.80;4.40;;;;;;;24.95;44.04;98744.09;5075234;28;20024;-47
2022/07/29 08:47:36;;;;;;;24.52;3.45;;;;;;;24.91;43.69;98754.59;5075182;28;20025;-47
2022/07/29 08:50:03;;;;;;;25.83;2.72;;;;;;;24.71;43.70;98760.31;5075129;28;20024;-47
2022/07/29 08:52:35;;;;;;;18.48;3.10;;;;;;;24.43;44.33;98765.50;5057422;28;20508;-47
2022/07/29 08:55:03;;;;;;;27.05;3.58;;;;;;;24.28;45.21;98784.47;5057198;28;20036;-46
2022/07/29 08:57:29;;;;;;;13.48;2.75;;;;;;;24.23;45.34;98789.91;5057059;28;20422;-47
2022/07/29 08:59:59;;;;;;;10.20;2.90;;;;;;;24.08;47.67;98788.97;5057105;28;20032;-46
2022/07/29 09:02:29;;;;;;;21.25;3.40;;;;;;;23.86;50.05;98796.75;5075026;28;20028;-46
2022/07/29 09:04:59;;;;;;;12.77;2.97;;;;;;;23.41;51.63;98798.78;5074926;28;20033;-47
2022/07/29 09:07:25;;;;;;;7.28;2.30;;;;;;;22.71;53.29;98799.81;5074770;28;20028;-46
2022/07/29 09:09:50;;;;;;;11.90;2.92;;;;;;;22.17;54.83;98789.91;5074887;28;20482;-47
2022/07/29 09:12:16;;;;;;;7.72;3.20;;;;;;;21.63;56.85;98810.91;5056818;28;20020;-46
2022/07/29 09:14:42;;;;;;;6.22;3.40;;;;;;;21.15;58.89;98813.03;5074801;28;20027;-46
2022/07/29 09:17:08;;;;;;;12.00;3.83;;;;;;;20.68;60.73;98814.03;5074607;28;20058;-47
2022/07/29 09:19:36;;;;;;;13.98;3.90;;;;;;;20.31;62.53;98810.44;5074678;28;20447;-48
2022/07/29 09:22:04;;;;;;;9.20;3.17;;;;;;;19.98;63.90;98811.63;5074621;28;20513;-50
2022/07/29 09:24:45;;;;;;;18.35;4.40;;;;;;;19.68;66.17;98822.84;5074597;28;20024;-49
2022/07/29 09:27:21;;;;;;;13.52;4.40;;;;;;;19.47;67.45;98830.69;5056191;28;20051;-49
2022/07/29 09:29:59;;;;;;;12.93;5.70;;;;;;;19.39;70.55;98843.69;5074767;28;20393;-48
2022/07/29 09:32:26;;;;;;;10.23;5.68;;;;;;;19.41;71.62;98846.88;5056013;28;20035;-48
2022/07/29 09:35:18;;;;;;;20.70;6.55;;;;;;;19.44;74.43;98863.16;5074473;28;20023;-48
2022/07/29 09:37:45;;;;;;;26.45;7.00;;;;;;;19.57;74.72;98851.28;5074464;28;20040;-49
2022/07/29 09:40:16;;;;;;;19.42;5.55;;;;;;;19.62;75.12;98867.28;5056357;28;20020;-49
2022/07/29 09:42:47;;;;;;;30.75;6.38;;;;;;;19.58;75.46;98868.88;5056457;28;20457;-49
2022/07/29 09:45:26;;;;;;;15.32;6.25;;;;;;;19.61;76.85;98870.22;5074179;28;20498;-49
2022/07/29 09:47:51;;;;;;;14.30;5.15;;;;;;;19.60;75.44;98857.94;5074188;28;20561;-47
2022/07/29 09:50:23;;;;;;;13.07;5.20;;;;;;;19.39;75.42;98855.13;5056149;28;20048;-49
2022/07/29 09:52:52;;;;;;;15.68;5.15;;;;;;;19.20;75.84;98860.03;5074092;28;20079;-48
2022/07/29 09:55:18;;;;;;;15.27;5.97;;;;;;;18.94;74.80;98864.28;5074088;28;20021;-48
2022/07/29 09:57:45;;;;;;;14.45;5.30;;;;;;;18.90;76.42;98863.19;5055986;28;20043;-49
2022/07/29 10:00:19;;;;;;;13.07;5.15;;;;;;;18.73;75.96;98858.75;5074051;28;20390;-49
2022/07/29 10:02:47;;;;;;;8.93;4.85;;;;;;;18.73;78.00;98866.72;5056064;28;20032;-47
2022/07/29 10:05:24;;;;;;;10.02;5.82;;;;;;;18.91;79.27;98859.47;5073781;28;20040;-47
2022/07/29 10:07:55;;;;;;;18.42;6.43;;;;;;;19.01;77.10;98859.56;5056162;28;20398;-47
2022/07/29 10:10:33;;;;;;;14.80;5.13;;;;;;;19.07;77.41;98857.75;5073732;28;20356;-50
2022/07/29 10:13:02;;;;;;;10.52;5.72;;;;;;;19.10;75.96;98859.94;5073772;28;20025;-51
2022/07/29 10:15:31;;;;;;;11.65;5.80;;;;;;;19.15;77.24;98860.75;5056032;28;20495;-49
2022/07/29 10:17:58;;;;;;;13.70;5.38;;;;;;;19.28;76.95;98856.91;5073546;28;20494;-48
2022/07/29 10:20:27;;;;;;;13.45;6.63;;;;;;;19.35;77.36;98865.47;5073521;28;20367;-47
2022/07/29 10:22:54;;;;;;;11.75;6.60;;;;;;;19.40;76.81;98855.91;5055529;28;20111;-50
2022/07/29 10:25:24;;;;;;;24.40;22.00;;;;;;;19.51;77.65;98854.94;5073447;28;20012;-49
2022/07/29 10:27:53;;;;;;;10.48;6.40;;;;;;;19.68;77.20;98849.47;5073186;28;20040;-50
2022/07/29 10:30:21;;;;;;;9.93;4.75;;;;;;;19.82;76.84;98858.69;5073342;28;20021;-48
2022/07/29 10:33:11;;;;;;;6.68;3.40;;;;;;;19.84;73.69;98851.22;5055318;28;20116;-49
2022/07/29 10:36:20;;;;;;;14.10;4.38;;;;;;;19.78;72.93;98846.13;5055315;28;20028;-48
2022/07/29 10:39:01;;;;;;;11.75;7.47;;;;;;;19.81;73.09;98845.63;5034303;28;20590;-48
2022/07/29 10:42:00;;;;;;;20.42;12.68;;;;;;;19.93;74.31;98838.22;5055459;28;20032;-49
2022/07/29 10:44:27;;;;;;;23.67;17.42;;;;;;;20.20;73.92;98848.75;5072673;28;20025;-50
2022/07/29 10:46:54;;;;;;;20.73;13.68;;;;;;;20.38;74.30;98838.72;5072997;28;20102;-50
2022/07/29 10:49:25;;;;;;;15.15;10.18;;;;;;;20.59;74.07;98848.41;5072981;28;20024;-49
2022/07/29 10:52:04;;;;;;;13.32;6.82;;;;;;;20.67;72.89;98839.91;5072904;28;20052;-49
2022/07/29 10:54:42;;;;;;;15.27;9.70;;;;;;;20.83;72.67;98847.97;5072865;28;20064;-50
2022/07/29 10:57:14;;;;;;;19.75;10.50;;;;;;;21.00;73.06;98840.50;5072762;28;20021;-50
2022/07/29 10:59:41;;;;;;;17.63;11.05;;;;;;;21.24;72.68;98843.47;5054867;28;20189;-50
2022/07/29 11:02:39;;;;;;;14.50;9.77;;;;;;;21.48;71.94;98840.28;5072657;28;20017;-50
2022/07/29 11:05:19;;;;;;;13.18;8.05;;;;;;;21.74;70.87;98847.22;5072610;28;20027;-47
2022/07/29 11:08:12;;;;;;;11.77;7.35;;;;;;;22.03;70.87;98851.94;5072612;28;20158;-50
2022/07/29 11:10:39;;;;;;;17.35;7.32;;;;;;;22.18;69.50;98856.47;5072462;28;20107;-50
2022/07/29 11:13:05;;;;;;;15.90;4.53;;;;;;;22.51;69.74;98840.84;5072526;28;20028;-49
2022/07/29 11:15:54;;;;;;;19.88;7.38;;;;;;;22.96;68.48;98846.22;5054490;28;20035;-49
2022/07/29 11:18:20;;;;;;;15.70;5.28;;;;;;;23.37;66.48;98841.41;5072788;28;20044;-49
2022/07/29 11:20:52;;;;;;;12.15;5.05;;;;;;;23.80;65.59;98838.88;5054377;28;20021;-50
2022/07/29 11:23:28;;;;;;;13.82;6.55;;;;;;;24.30;63.94;98839.41;5072384;28;20469;-47
2022/07/29 11:26:24;;;;;;;7.78;4.40;;;;;;;24.87;63.12;98842.19;5071974;28;20031;-48
2022/07/29 11:28:53;;;;;;;16.10;4.45;;;;;;;25.40;61.59;98827.69;5070769;28;20409;-48
2022/07/29 11:31:39;;;;;;;25.65;7.75;;;;;;;26.58;57.53;98820.13;5072229;28;20029;-49
2022/07/29 11:34:33;;;;;;;16.60;4.30;;;;;;;27.83;53.39;98814.13;5072106;28;20047;-49
2022/07/29 11:37:21;;;;;;;16.30;4.10;;;;;;;29.86;50.13;98819.00;5072163;28;20566;-48
2022/07/29 11:39:54;;;;;;;13.40;3.53;;;;;;;31.31;46.19;98817.03;5072118;28;20056;-49
2022/07/29 11:42:20;;;;;;;49.75;5.35;;;;;;;32.25;44.14;98811.59;5071983;28;20486;-48
2022/07/29 11:45:00;;;;;;;15.73;4.57;;;;;;;32.62;40.15;98802.63;5054085;28;20078;-49